FredonyerEastRWIS Atmospheric Data: 09/16/2020 Summary  Detailed Graphs  Station List

  Temperature     Wind Precipitation Visibility
Timestamp Air Wet
Bulb
Dew-
point
24-hr
Max
24-hr
Min
Relative
Humidity
Atmospheric
Pressure
Avg
Speed
Avg
Dir
Spot
Speed
Spot
Dir
Max
Speed
Max
Dir
  Rate Situation Start End 1 hr 3 hr 6 hr 12 hr 24 hr   Situation
Date Time °F °F °F °F °F % in Hg mph ° mph ° mph ° Y/N in/hr text Date Time Date Time in in in in in mi text
09/16/2020 12:08 AM 50.90 41.72 29.84 81.32 43.34 43.0 Not Reported 0.89 NW 1.34 NW 1.34 NW No 0.000 No Precipitation 01/01/1970 01:00 AM 01/01/1970 01:00 AM 0.000 0.000 0.000 0.000 0.000 Not Reported Not Reported
09/16/2020 12:23 AM 50.90 41.90 30.02 81.32 43.34 43.0 Not Reported 0.89 N 0.89 N 1.34 N No 0.000 No Precipitation 01/01/1970 01:00 AM 01/01/1970 01:00 AM 0.000 0.000 0.000 0.000 0.000 Not Reported Not Reported
09/16/2020 12:38 AM 50.54 41.54 29.48 81.32 43.34 43.0 Not Reported 0.67 N 1.12 NW 1.57 N No 0.000 No Precipitation 01/01/1970 01:00 AM 01/01/1970 01:00 AM 0.000 0.000 0.000 0.000 0.000 Not Reported Not Reported
09/16/2020 12:53 AM 50.18 41.00 28.76 81.32 43.34 43.0 Not Reported 1.34 NW 0.89 N 1.57 NW No 0.000 No Precipitation 01/01/1970 01:00 AM 01/01/1970 01:00 AM 0.000 0.000 0.000 0.000 0.000 Not Reported Not Reported
09/16/2020 01:08 AM 49.82 41.18 29.48 81.32 43.34 44.0 Not Reported 1.12 N 1.79 NW 1.79 NW No 0.000 No Precipitation 01/01/1970 01:00 AM 01/01/1970 01:00 AM 0.000 0.000 0.000 0.000 0.000 Not Reported Not Reported
09/16/2020 01:23 AM 49.10 40.64 28.94 81.32 43.34 45.0 Not Reported 0.45 SW 0.00 SW 0.67 SW No 0.000 No Precipitation 01/01/1970 01:00 AM 01/01/1970 01:00 AM 0.000 0.000 0.000 0.000 0.000 Not Reported Not Reported
09/16/2020 01:38 AM 48.20 40.10 28.76 81.32 43.34 46.0 Not Reported 1.12 NW 0.89 N 1.34 NW No 0.000 No Precipitation 01/01/1970 01:00 AM 01/01/1970 01:00 AM 0.000 0.000 0.000 0.000 0.000 Not Reported Not Reported
09/16/2020 01:53 AM 47.48 39.56 28.58 81.32 43.34 47.0 Not Reported 0.00 N 0.00 NE 0.00 NE No 0.000 No Precipitation 01/01/1970 01:00 AM 01/01/1970 01:00 AM 0.000 0.000 0.000 0.000 0.000 Not Reported Not Reported
09/16/2020 02:08 AM 47.30 39.38 28.04 81.32 43.34 46.0 Not Reported 0.89 NW 0.22 N 1.12 N No 0.000 No Precipitation 01/01/1970 01:00 AM 01/01/1970 01:00 AM 0.000 0.000 0.000 0.000 0.000 Not Reported Not Reported
09/16/2020 02:23 AM 46.94 39.02 27.68 81.32 43.34 46.0 Not Reported 0.00 N 0.00 N 1.12 NW No 0.000 No Precipitation 01/01/1970 01:00 AM 01/01/1970 01:00 AM 0.000 0.000 0.000 0.000 0.000 Not Reported Not Reported
09/16/2020 02:38 AM 46.94 39.02 27.68 81.32 43.34 46.0 Not Reported 0.67 NW 0.89 NW 1.34 NW No 0.000 No Precipitation 01/01/1970 01:00 AM 01/01/1970 01:00 AM 0.000 0.000 0.000 0.000 0.000 Not Reported Not Reported
09/16/2020 02:53 AM 46.76 38.84 27.50 81.32 43.34 46.0 Not Reported 0.00 N 0.00 NW 1.57 NW No 0.000 No Precipitation 01/01/1970 01:00 AM 01/01/1970 01:00 AM 0.000 0.000 0.000 0.000 0.000 Not Reported Not Reported
09/16/2020 03:08 AM 46.94 39.02 27.68 81.32 43.34 46.0 Not Reported 0.89 NW 0.67 NW 0.89 NW No 0.000 No Precipitation 01/01/1970 01:00 AM 01/01/1970 01:00 AM 0.000 0.000 0.000 0.000 0.000 Not Reported Not Reported
09/16/2020 03:23 AM 47.12 39.02 27.68 81.32 43.34 46.0 Not Reported 0.00 N 0.00 N 0.67 N No 0.000 No Precipitation 01/01/1970 01:00 AM 01/01/1970 01:00 AM 0.000 0.000 0.000 0.000 0.000 Not Reported Not Reported
09/16/2020 03:38 AM 47.66 39.38 28.04 81.32 43.34 45.0 Not Reported 0.00 W 0.89 N 1.57 NW No 0.000 No Precipitation 01/01/1970 01:00 AM 01/01/1970 01:00 AM 0.000 0.000 0.000 0.000 0.000 Not Reported Not Reported
09/16/2020 03:53 AM 47.30 39.02 27.32 81.32 43.34 45.0 Not Reported 0.22 N 2.46 N 2.46 N No 0.000 No Precipitation 01/01/1970 01:00 AM 01/01/1970 01:00 AM 0.000 0.000 0.000 0.000 0.000 Not Reported Not Reported
09/16/2020 04:09 AM 47.12 39.02 27.14 81.32 43.34 45.0 Not Reported 0.22 W 0.67 NW 1.12 NW No 0.000 No Precipitation 01/01/1970 01:00 AM 01/01/1970 01:00 AM 0.000 0.000 0.000 0.000 0.000 Not Reported Not Reported
09/16/2020 04:23 AM 47.30 38.84 26.78 81.32 43.34 44.0 Not Reported 0.00 NW 0.00 NW 1.34 NW No 0.000 No Precipitation 01/01/1970 01:00 AM 01/01/1970 01:00 AM 0.000 0.000 0.000 0.000 0.000 Not Reported Not Reported
09/16/2020 04:38 AM 47.30 38.84 26.42 81.32 43.34 43.0 Not Reported 0.00 N 0.00 N 0.89 N No 0.000 No Precipitation 01/01/1970 01:00 AM 01/01/1970 01:00 AM 0.000 0.000 0.000 0.000 0.000 Not Reported Not Reported
09/16/2020 04:53 AM 47.48 39.02 26.60 81.32 43.34 43.0 Not Reported 1.57 N 0.00 N 1.79 N No 0.000 No Precipitation 01/01/1970 01:00 AM 01/01/1970 01:00 AM 0.000 0.000 0.000 0.000 0.000 Not Reported Not Reported
09/16/2020 05:08 AM 47.12 38.66 26.42 81.32 43.34 44.0 Not Reported 1.12 N 0.00 NW 1.34 N No 0.000 No Precipitation 01/01/1970 01:00 AM 01/01/1970 01:00 AM 0.000 0.000 0.000 0.000 0.000 Not Reported Not Reported
09/16/2020 05:23 AM 46.76 38.66 26.78 81.32 43.34 45.0 Not Reported 0.00 N 0.00 NW 0.67 NW No 0.000 No Precipitation 01/01/1970 01:00 AM 01/01/1970 01:00 AM 0.000 0.000 0.000 0.000 0.000 Not Reported Not Reported
09/16/2020 05:38 AM 46.58 38.48 26.78 81.32 43.34 45.0 Not Reported 0.22 NW 0.00 NW 1.12 NW No 0.000 No Precipitation 01/01/1970 01:00 AM 01/01/1970 01:00 AM 0.000 0.000 0.000 0.000 0.000 Not Reported Not Reported
09/16/2020 05:53 AM 46.22 38.30 26.78 81.32 43.34 46.0 Not Reported 0.45 N 0.00 N 0.89 N No 0.000 No Precipitation 01/01/1970 01:00 AM 01/01/1970 01:00 AM 0.000 0.000 0.000 0.000 0.000 Not Reported Not Reported
09/16/2020 06:08 AM 46.40 38.48 27.14 81.32 43.34 46.0 Not Reported 0.00 N 0.00 W 1.34 NW No 0.000 No Precipitation 01/01/1970 01:00 AM 01/01/1970 01:00 AM 0.000 0.000 0.000 0.000 0.000 Not Reported Not Reported
09/16/2020 06:23 AM 46.04 38.48 27.68 81.32 43.34 48.0 Not Reported 0.00 N 0.89 W 1.57 N No 0.000 No Precipitation 01/01/1970 01:00 AM 01/01/1970 01:00 AM 0.000 0.000 0.000 0.000 0.000 Not Reported Not Reported
09/16/2020 06:38 AM 45.32 38.12 27.68 81.32 43.34 49.0 Not Reported 0.00 N 0.45 N 1.34 S No 0.000 No Precipitation 01/01/1970 01:00 AM 01/01/1970 01:00 AM 0.000 0.000 0.000 0.000 0.000 Not Reported Not Reported
09/16/2020 06:53 AM 45.50 37.94 26.96 81.32 43.52 47.0 Not Reported 1.57 NW 0.00 NW 1.57 NW No 0.000 No Precipitation 01/01/1970 01:00 AM 01/01/1970 01:00 AM 0.000 0.000 0.000 0.000 0.000 Not Reported Not Reported
09/16/2020 07:08 AM 46.04 38.84 28.76 81.32 43.88 50.0 Not Reported 0.00 N 0.00 W 1.12 NW No 0.000 No Precipitation 01/01/1970 01:00 AM 01/01/1970 01:00 AM 0.000 0.000 0.000 0.000 0.000 Not Reported Not Reported
09/16/2020 07:23 AM 46.40 39.02 28.76 81.32 44.42 49.0 Not Reported 0.00 N 0.00 NW 0.67 N No 0.000 No Precipitation 01/01/1970 01:00 AM 01/01/1970 01:00 AM 0.000 0.000 0.000 0.000 0.000 Not Reported Not Reported
09/16/2020 07:38 AM 46.76 39.38 29.30 81.32 45.14 50.0 Not Reported 0.00 N 0.00 NW 1.12 NW No 0.000 No Precipitation 01/01/1970 01:00 AM 01/01/1970 01:00 AM 0.000 0.000 0.000 0.000 0.000 Not Reported Not Reported
09/16/2020 07:53 AM 47.30 40.10 30.56 81.32 45.14 51.0 Not Reported 0.00 N 0.00 W 0.22 S No 0.000 No Precipitation 01/01/1970 01:00 AM 01/01/1970 01:00 AM 0.000 0.000 0.000 0.000 0.000 Not Reported Not Reported
09/16/2020 08:08 AM 48.56 41.00 31.10 81.32 45.14 50.0 Not Reported 0.00 N 0.45 NE 0.45 NE No 0.000 No Precipitation 01/01/1970 01:00 AM 01/01/1970 01:00 AM 0.000 0.000 0.000 0.000 0.000 Not Reported Not Reported
09/16/2020 08:23 AM 50.00 41.90 31.82 81.32 45.14 49.0 Not Reported 1.34 N 0.45 N 2.46 N No 0.000 No Precipitation 01/01/1970 01:00 AM 01/01/1970 01:00 AM 0.000 0.000 0.000 0.000 0.000 Not Reported Not Reported
09/16/2020 08:38 AM 51.98 43.34 33.08 81.32 45.14 48.0 Not Reported 0.00 S 0.45 S 2.68 SE No 0.000 No Precipitation 01/01/1970 01:00 AM 01/01/1970 01:00 AM 0.000 0.000 0.000 0.000 0.000 Not Reported Not Reported
09/16/2020 08:53 AM 54.68 45.32 34.52 81.32 45.14 46.0 Not Reported 0.45 SW 0.00 SW 0.89 S No 0.000 No Precipitation 01/01/1970 01:00 AM 01/01/1970 01:00 AM 0.000 0.000 0.000 0.000 0.000 Not Reported Not Reported
09/16/2020 09:08 AM 56.84 46.58 35.24 81.32 45.14 44.0 Not Reported 0.00 N 0.00 SW 0.00 SW No 0.000 No Precipitation 01/01/1970 01:00 AM 01/01/1970 01:00 AM 0.000 0.000 0.000 0.000 0.000 Not Reported Not Reported
09/16/2020 09:23 AM 58.28 47.48 36.14 81.32 45.14 43.0 Not Reported 0.22 S 0.89 S 0.89 S No 0.000 No Precipitation 01/01/1970 01:00 AM 01/01/1970 01:00 AM 0.000 0.000 0.000 0.000 0.000 Not Reported Not Reported
09/16/2020 09:39 AM 58.82 47.66 35.42 81.32 45.14 41.0 Not Reported 1.34 S 0.45 S 1.79 S No 0.000 No Precipitation 01/01/1970 01:00 AM 01/01/1970 01:00 AM 0.000 0.000 0.000 0.000 0.000 Not Reported Not Reported
09/16/2020 09:53 AM 61.16 48.92 35.96 81.32 45.14 38.0 Not Reported 1.34 S 2.01 S 2.01 S No 0.000 No Precipitation 01/01/1970 01:00 AM 01/01/1970 01:00 AM 0.000 0.000 0.000 0.000 0.000 Not Reported Not Reported
09/16/2020 10:08 AM 64.58 49.46 33.26 81.32 45.14 30.0 Not Reported 1.12 S 2.01 SE 2.91 S No 0.000 No Precipitation 01/01/1970 01:00 AM 01/01/1970 01:00 AM 0.000 0.000 0.000 0.000 0.000 Not Reported Not Reported
09/16/2020 10:23 AM 67.64 51.62 35.42 81.32 45.14 30.0 Not Reported 0.89 NE 6.26 S 6.26 S No 0.000 No Precipitation 01/01/1970 01:00 AM 01/01/1970 01:00 AM 0.000 0.000 0.000 0.000 0.000 Not Reported Not Reported
09/16/2020 10:38 AM 71.06 52.16 32.36 81.32 45.14 23.0 Not Reported 2.68 SW 4.25 SE 4.70 S No 0.000 No Precipitation 01/01/1970 01:00 AM 01/01/1970 01:00 AM 0.000 0.000 0.000 0.000 0.000 Not Reported Not Reported
09/16/2020 10:53 AM 72.14 51.26 27.68 81.32 45.14 18.0 Not Reported 4.70 S 5.37 S 7.83 SW No 0.000 No Precipitation 01/01/1970 01:00 AM 01/01/1970 01:00 AM 0.000 0.000 0.000 0.000 0.000 Not Reported Not Reported
09/16/2020 11:08 AM 74.12 52.52 28.94 81.32 45.14 18.0 Not Reported 3.58 S 1.34 W 7.38 S No 0.000 No Precipitation 01/01/1970 01:00 AM 01/01/1970 01:00 AM 0.000 0.000 0.000 0.000 0.000 Not Reported Not Reported
09/16/2020 11:23 AM 74.12 52.52 28.76 81.32 45.14 18.0 Not Reported 3.13 SE 2.01 S 6.93 S No 0.000 No Precipitation 01/01/1970 01:00 AM 01/01/1970 01:00 AM 0.000 0.000 0.000 0.000 0.000 Not Reported Not Reported
09/16/2020 11:38 AM 74.48 52.52 28.40 81.32 45.14 18.0 Not Reported 4.47 SW 4.92 SW 6.93 W No 0.000 No Precipitation 01/01/1970 01:00 AM 01/01/1970 01:00 AM 0.000 0.000 0.000 0.000 0.000 Not Reported Not Reported
09/16/2020 11:53 AM 74.84 52.70 28.22 75.56 73.76 17.0 Not Reported 3.80 NW 6.04 S 7.61 S No 0.000 No Precipitation 01/01/1970 01:00 AM 01/01/1970 01:00 AM 0.000 0.000 0.000 0.000 0.000 Not Reported Not Reported
09/16/2020 12:09 PM 75.20 52.52 28.04 75.56 73.76 17.0 Not Reported 4.92 W 6.04 S 8.05 NW No 0.000 No Precipitation 01/01/1970 01:00 AM 01/01/1970 01:00 AM 0.000 0.000 0.000 0.000 0.000 Not Reported Not Reported
09/16/2020 12:23 PM 74.84 52.70 28.40 75.56 73.76 17.0 Not Reported 6.04 W 3.80 W 9.84 W No 0.000 No Precipitation 01/01/1970 01:00 AM 01/01/1970 01:00 AM 0.000 0.000 0.000 0.000 0.000 Not Reported Not Reported
09/16/2020 12:38 PM 76.46 53.06 27.14 76.46 73.76 15.0 Not Reported 6.26 S 4.47 S 8.28 SW No 0.000 No Precipitation 01/01/1970 01:00 AM 01/01/1970 01:00 AM 0.000 0.000 0.000 0.000 0.000 Not Reported Not Reported
09/16/2020 12:53 PM 76.82 53.60 28.76 77.72 73.76 16.0 Not Reported 5.37 SW 2.24 S 7.38 SW No 0.000 No Precipitation 01/01/1970 01:00 AM 01/01/1970 01:00 AM 0.000 0.000 0.000 0.000 0.000 Not Reported Not Reported
09/16/2020 01:09 PM 75.92 53.24 28.58 77.72 73.76 17.0 Not Reported 5.59 SW 3.13 W 7.61 SW No 0.000 No Precipitation 01/01/1970 01:00 AM 01/01/1970 01:00 AM 0.000 0.000 0.000 0.000 0.000 Not Reported Not Reported
09/16/2020 01:23 PM 77.36 53.60 27.50 77.90 73.76 15.0 Not Reported 2.68 SW 6.04 SW 6.71 W No 0.000 No Precipitation 01/01/1970 01:00 AM 01/01/1970 01:00 AM 0.000 0.000 0.000 0.000 0.000 Not Reported Not Reported
09/16/2020 01:38 PM 78.08 53.06 24.08 78.08 73.76 13.0 Not Reported 5.14 SW 6.49 NW 7.16 NW No 0.000 No Precipitation 01/01/1970 01:00 AM 01/01/1970 01:00 AM 0.000 0.000 0.000 0.000 0.000 Not Reported Not Reported
09/16/2020 01:53 PM 77.90 52.70 23.18 78.98 73.76 12.0 Not Reported 5.59 W 4.25 S 10.74 SW No 0.000 No Precipitation 01/01/1970 01:00 AM 01/01/1970 01:00 AM 0.000 0.000 0.000 0.000 0.000 Not Reported Not Reported
09/16/2020 02:08 PM 78.62 53.06 22.46 78.98 73.76 12.0 Not Reported 4.25 SW 4.92 W 7.38 SE No 0.000 No Precipitation 01/01/1970 01:00 AM 01/01/1970 01:00 AM 0.000 0.000 0.000 0.000 0.000 Not Reported Not Reported
09/16/2020 02:23 PM 78.08 52.34 19.76 78.98 73.76 11.0 Not Reported 6.26 SE 2.91 NW 8.95 SW No 0.000 No Precipitation 01/01/1970 01:00 AM 01/01/1970 01:00 AM 0.000 0.000 0.000 0.000 0.000 Not Reported Not Reported
09/16/2020 02:38 PM 79.34 51.44 10.94 79.34 73.76 7.0 Not Reported 4.92 N 5.14 S 8.05 S No 0.000 No Precipitation 01/01/1970 01:00 AM 01/01/1970 01:00 AM 0.000 0.000 0.000 0.000 0.000 Not Reported Not Reported
09/16/2020 02:53 PM 78.80 51.26 11.48 80.42 73.76 7.0 Not Reported 6.04 SW 1.34 SW 9.40 S No 0.000 No Precipitation 01/01/1970 01:00 AM 01/01/1970 01:00 AM 0.000 0.000 0.000 0.000 0.000 Not Reported Not Reported
09/16/2020 03:08 PM 78.62 51.44 13.46 80.42 73.76 8.0 Not Reported 4.70 SW 2.01 W 9.84 W No 0.000 No Precipitation 01/01/1970 01:00 AM 01/01/1970 01:00 AM 0.000 0.000 0.000 0.000 0.000 Not Reported Not Reported
09/16/2020 03:23 PM 79.34 52.34 16.88 80.42 73.76 9.0 Not Reported 5.82 S 1.79 SW 11.41 S No 0.000 No Precipitation 01/01/1970 01:00 AM 01/01/1970 01:00 AM 0.000 0.000 0.000 0.000 0.000 Not Reported Not Reported
09/16/2020 03:39 PM 78.44 52.16 17.60 80.42 73.76 10.0 Not Reported 3.80 W 5.37 N 11.41 S No 0.000 No Precipitation 01/01/1970 01:00 AM 01/01/1970 01:00 AM 0.000 0.000 0.000 0.000 0.000 Not Reported Not Reported
09/16/2020 03:53 PM 78.80 51.98 17.06 80.42 73.76 9.0 Not Reported 4.70 S 4.47 S 8.50 SW No 0.000 No Precipitation 01/01/1970 01:00 AM 01/01/1970 01:00 AM 0.000 0.000 0.000 0.000 0.000 Not Reported Not Reported
09/16/2020 04:08 PM 78.26 51.80 17.06 80.42 73.76 9.0 Not Reported 8.28 S 5.37 S 9.40 S No 0.000 No Precipitation 01/01/1970 01:00 AM 01/01/1970 01:00 AM 0.000 0.000 0.000 0.000 0.000 Not Reported Not Reported
09/16/2020 04:23 PM 78.08 52.16 19.94 80.42 73.76 11.0 Not Reported 3.80 W 3.58 S 7.83 W No 0.000 No Precipitation 01/01/1970 01:00 AM 01/01/1970 01:00 AM 0.000 0.000 0.000 0.000 0.000 Not Reported Not Reported
09/16/2020 04:38 PM 77.90 52.34 20.84 80.42 73.76 11.0 Not Reported 3.13 W 3.36 W 7.16 NW No 0.000 No Precipitation 01/01/1970 01:00 AM 01/01/1970 01:00 AM 0.000 0.000 0.000 0.000 0.000 Not Reported Not Reported
09/16/2020 04:53 PM 77.90 51.98 18.50 80.42 73.76 10.0 Not Reported 2.24 SW 2.24 SW 5.82 S No 0.000 No Precipitation 01/01/1970 01:00 AM 01/01/1970 01:00 AM 0.000 0.000 0.000 0.000 0.000 Not Reported Not Reported
09/16/2020 05:08 PM 77.90 52.16 19.22 80.42 73.76 10.0 Not Reported 4.03 S 4.92 SE 6.93 S No 0.000 No Precipitation 01/01/1970 01:00 AM 01/01/1970 01:00 AM 0.000 0.000 0.000 0.000 0.000 Not Reported Not Reported
09/16/2020 05:23 PM 77.54 51.62 18.14 80.42 73.76 10.0 Not Reported 2.01 SW 3.80 SE 6.26 SE No 0.000 No Precipitation 01/01/1970 01:00 AM 01/01/1970 01:00 AM 0.000 0.000 0.000 0.000 0.000 Not Reported Not Reported
09/16/2020 05:38 PM 76.46 51.26 18.14 80.42 73.76 10.0 Not Reported 5.37 W 2.24 SW 7.38 NW No 0.000 No Precipitation 01/01/1970 01:00 AM 01/01/1970 01:00 AM 0.000 0.000 0.000 0.000 0.000 Not Reported Not Reported
09/16/2020 05:53 PM 76.10 51.26 18.50 80.42 73.76 11.0 Not Reported 4.70 S 2.01 W 6.71 W No 0.000 No Precipitation 01/01/1970 01:00 AM 01/01/1970 01:00 AM 0.000 0.000 0.000 0.000 0.000 Not Reported Not Reported
09/16/2020 06:08 PM 75.20 51.80 23.90 80.42 73.76 14.0 Not Reported 3.58 W 1.79 W 4.25 SW No 0.000 No Precipitation 01/01/1970 01:00 AM 01/01/1970 01:00 AM 0.000 0.000 0.000 0.000 0.000 Not Reported Not Reported
09/16/2020 06:23 PM 74.30 52.16 27.32 80.42 73.76 17.0 Not Reported 2.68 W 2.46 NW 6.49 NW No 0.000 No Precipitation 01/01/1970 01:00 AM 01/01/1970 01:00 AM 0.000 0.000 0.000 0.000 0.000 Not Reported Not Reported
09/16/2020 06:38 PM 73.04 51.44 26.78 80.42 73.04 17.0 Not Reported 5.37 W 6.04 W 8.05 W No 0.000 No Precipitation 01/01/1970 01:00 AM 01/01/1970 01:00 AM 0.000 0.000 0.000 0.000 0.000 Not Reported Not Reported
09/16/2020 06:53 PM 72.14 51.26 27.14 80.42 72.14 18.0 Not Reported 3.36 NW 3.58 W 4.47 W No 0.000 No Precipitation 01/01/1970 01:00 AM 01/01/1970 01:00 AM 0.000 0.000 0.000 0.000 0.000 Not Reported Not Reported
09/16/2020 07:08 PM 69.44 50.18 27.68 80.42 69.44 20.0 Not Reported 2.68 NW 2.46 W 3.80 W No 0.000 No Precipitation 01/01/1970 01:00 AM 01/01/1970 01:00 AM 0.000 0.000 0.000 0.000 0.000 Not Reported Not Reported
09/16/2020 07:23 PM 66.74 49.10 28.22 80.42 66.56 23.0 Not Reported 1.57 W 1.34 NW 3.80 NW No 0.000 No Precipitation 01/01/1970 01:00 AM 01/01/1970 01:00 AM 0.000 0.000 0.000 0.000 0.000 Not Reported Not Reported
09/16/2020 07:38 PM 64.40 48.02 28.22 80.42 64.40 25.0 Not Reported 1.12 NW 1.57 W 2.91 NW No 0.000 No Precipitation 01/01/1970 01:00 AM 01/01/1970 01:00 AM 0.000 0.000 0.000 0.000 0.000 Not Reported Not Reported
09/16/2020 07:53 PM 62.42 47.12 28.22 80.42 62.42 27.0 Not Reported 1.57 S 0.67 SW 2.24 W No 0.000 No Precipitation 01/01/1970 01:00 AM 01/01/1970 01:00 AM 0.000 0.000 0.000 0.000 0.000 Not Reported Not Reported
09/16/2020 08:09 PM 60.44 46.04 28.40 80.42 60.44 29.0 Not Reported 0.89 W 1.12 W 2.24 S No 0.000 No Precipitation 01/01/1970 01:00 AM 01/01/1970 01:00 AM 0.000 0.000 0.000 0.000 0.000 Not Reported Not Reported
09/16/2020 08:23 PM 60.62 46.40 29.12 80.42 59.90 29.0 Not Reported 1.79 W 2.91 W 4.03 W No 0.000 No Precipitation 01/01/1970 01:00 AM 01/01/1970 01:00 AM 0.000 0.000 0.000 0.000 0.000 Not Reported Not Reported
09/16/2020 08:38 PM 61.34 46.76 29.12 80.42 59.90 29.0 Not Reported 3.80 W 4.03 NW 4.25 NW No 0.000 No Precipitation 01/01/1970 01:00 AM 01/01/1970 01:00 AM 0.000 0.000 0.000 0.000 0.000 Not Reported Not Reported
09/16/2020 08:53 PM 61.34 46.94 29.66 80.42 59.90 29.0 Not Reported 2.68 W 1.79 SW 6.49 W No 0.000 No Precipitation 01/01/1970 01:00 AM 01/01/1970 01:00 AM 0.000 0.000 0.000 0.000 0.000 Not Reported Not Reported
09/16/2020 09:08 PM 57.92 45.14 29.12 80.42 57.92 32.0 Not Reported 1.79 S 1.34 S 2.68 W No 0.000 No Precipitation 01/01/1970 01:00 AM 01/01/1970 01:00 AM 0.000 0.000 0.000 0.000 0.000 Not Reported Not Reported
09/16/2020 09:23 PM 56.48 44.24 28.76 80.42 56.48 34.0 Not Reported 1.12 S 0.45 SE 1.79 S No 0.000 No Precipitation 01/01/1970 01:00 AM 01/01/1970 01:00 AM 0.000 0.000 0.000 0.000 0.000 Not Reported Not Reported
09/16/2020 09:39 PM 55.22 43.70 29.30 80.42 55.22 36.0 Not Reported 1.12 NE 2.68 S 2.01 E No 0.000 No Precipitation 01/01/1970 01:00 AM 01/01/1970 01:00 AM 0.000 0.000 0.000 0.000 0.000 Not Reported Not Reported
09/16/2020 09:53 PM 54.50 43.34 29.30 80.42 54.50 37.0 Not Reported 1.57 N 0.00 SW 2.01 NW No 0.000 No Precipitation 01/01/1970 01:00 AM 01/01/1970 01:00 AM 0.000 0.000 0.000 0.000 0.000 Not Reported Not Reported
09/16/2020 10:09 PM 53.42 42.62 28.58 80.42 53.42 37.0 Not Reported 0.22 SW 1.34 SW 2.01 N No 0.000 No Precipitation 01/01/1970 01:00 AM 01/01/1970 01:00 AM 0.000 0.000 0.000 0.000 0.000 Not Reported Not Reported
09/16/2020 10:23 PM 52.70 42.26 28.58 80.42 52.70 38.0 Not Reported 0.00 SW 0.00 SW 1.12 S No 0.000 No Precipitation 01/01/1970 01:00 AM 01/01/1970 01:00 AM 0.000 0.000 0.000 0.000 0.000 Not Reported Not Reported
09/16/2020 10:39 PM 51.98 41.72 28.04 80.42 51.80 39.0 Not Reported 1.34 N 1.57 N 1.57 N No 0.000 No Precipitation 01/01/1970 01:00 AM 01/01/1970 01:00 AM 0.000 0.000 0.000 0.000 0.000 Not Reported Not Reported
09/16/2020 10:53 PM 51.44 41.36 27.50 80.42 51.44 39.0 Not Reported 1.34 N 1.79 N 1.79 N No 0.000 No Precipitation 01/01/1970 01:00 AM 01/01/1970 01:00 AM 0.000 0.000 0.000 0.000 0.000 Not Reported Not Reported
09/16/2020 11:08 PM 50.72 41.00 27.50 80.42 50.72 40.0 Not Reported 1.12 S 0.00 S 2.01 S No 0.000 No Precipitation 01/01/1970 01:00 AM 01/01/1970 01:00 AM 0.000 0.000 0.000 0.000 0.000 Not Reported Not Reported
09/16/2020 11:23 PM 50.00 40.64 27.86 80.42 50.00 41.0 Not Reported 0.00 N 1.12 N 1.12 N No 0.000 No Precipitation 01/01/1970 01:00 AM 01/01/1970 01:00 AM 0.000 0.000 0.000 0.000 0.000 Not Reported Not Reported
09/16/2020 11:38 PM 49.64 40.46 27.86 80.42 49.64 42.0 Not Reported 1.57 NW 1.12 N 2.01 NW No 0.000 No Precipitation 01/01/1970 01:00 AM 01/01/1970 01:00 AM 0.000 0.000 0.000 0.000 0.000 Not Reported Not Reported
09/16/2020 11:53 PM 49.46 40.46 28.40 80.42 49.46 43.0 Not Reported 1.12 NW 2.01 N 2.46 N No 0.000 No Precipitation 01/01/1970 01:00 AM 01/01/1970 01:00 AM 0.000 0.000 0.000 0.000 0.000 Not Reported Not Reported